Time;durP1;ratioP1;P1;durP2;ratioP2;P2;SDS_P1;SDS_P2;PMS_P1;PMS_P2;Temp;Humidity;BMP_temperature;BMP_pressure;BME280_temperature;BME280_humidity;BME280_pressure;Samples;Min_cycle;Max_cycle;Signal;HPM_P1;HPM_P2
2022/01/07 00:00:20;;;;;;;22.27;15.33;;;;;;;;;;5036318;28;20449;-35
2022/01/07 00:02:53;;;;;;;21.83;15.87;;;;;;;;;;5046648;28;20430;-35
2022/01/07 00:05:19;;;;;;;24.43;15.47;;;;;;;;;;5038370;28;21009;-35
2022/01/07 00:07:53;;;;;;;19.33;14.07;;;;;;;;;;5036986;28;20932;-35
2022/01/07 00:10:22;;;;;;;20.50;13.73;;;;;;;;;;5055244;28;20441;-35
2022/01/07 00:12:48;;;;;;;18.60;13.23;;;;;;;;;;5039834;28;20477;-34
2022/01/07 00:15:15;;;;;;;17.87;13.40;;;;;;;;;;5038360;28;20448;-35
2022/01/07 00:17:42;;;;;;;18.33;11.87;;;;;;;;;;5034088;28;21002;-35
2022/01/07 00:20:09;;;;;;;20.00;13.60;;;;;;;;;;5040187;28;20891;-35
2022/01/07 00:22:36;;;;;;;16.37;12.40;;;;;;;;;;5036301;28;20831;-35
2022/01/07 00:25:03;;;;;;;20.10;14.33;;;;;;;;;;5039665;28;20826;-35
2022/01/07 00:27:29;;;;;;;21.67;13.90;;;;;;;;;;5038091;28;20712;-35
2022/01/07 00:29:55;;;;;;;23.03;15.07;;;;;;;;;;5037859;28;20432;-35
2022/01/07 00:32:21;;;;;;;23.13;15.23;;;;;;;;;;5028956;28;20428;-35
2022/01/07 00:34:47;;;;;;;23.10;15.33;;;;;;;;;;5035454;28;20590;-34
2022/01/07 00:37:13;;;;;;;23.10;15.90;;;;;;;;;;5034765;28;20429;-35
2022/01/07 00:39:40;;;;;;;23.53;16.37;;;;;;;;;;5050655;28;20464;-35
2022/01/07 00:42:06;;;;;;;21.97;15.03;;;;;;;;;;5036797;28;20494;-34
2022/01/07 00:44:32;;;;;;;19.77;14.30;;;;;;;;;;5036782;28;20785;-35
2022/01/07 00:46:58;;;;;;;23.83;15.27;;;;;;;;;;5032503;28;20797;-34
2022/01/07 00:49:24;;;;;;;24.20;15.37;;;;;;;;;;5037282;28;20432;-35
2022/01/07 00:51:51;;;;;;;17.60;13.33;;;;;;;;;;5034809;28;20517;-35
2022/01/07 00:54:17;;;;;;;17.40;12.93;;;;;;;;;;5036852;28;20872;-35
2022/01/07 00:56:44;;;;;;;20.53;14.57;;;;;;;;;;5052660;28;20437;-35
2022/01/07 00:59:10;;;;;;;19.93;14.70;;;;;;;;;;5031753;28;20911;-35
2022/01/07 01:01:37;;;;;;;23.60;15.90;;;;;;;;;;5034210;28;20525;-34
2022/01/07 01:04:06;;;;;;;23.93;15.30;;;;;;;;;;5039069;28;21164;-34
2022/01/07 01:06:32;;;;;;;22.83;16.47;;;;;;;;;;5030593;28;20424;-34
2022/01/07 01:09:00;;;;;;;21.37;15.37;;;;;;;;;;5051867;28;20450;-34
2022/01/07 01:11:29;;;;;;;19.30;12.43;;;;;;;;;;5035735;28;20992;-34
2022/01/07 01:13:55;;;;;;;22.60;15.80;;;;;;;;;;5038230;28;20441;-34
2022/01/07 01:16:21;;;;;;;26.30;15.67;;;;;;;;;;5053936;28;20427;-34
2022/01/07 01:18:47;;;;;;;22.70;14.67;;;;;;;;;;5032877;28;20440;-34
2022/01/07 01:21:13;;;;;;;18.97;13.73;;;;;;;;;;5033821;28;20867;-34
2022/01/07 01:23:41;;;;;;;23.30;14.83;;;;;;;;;;5037059;28;20465;-34
2022/01/07 01:26:07;;;;;;;22.57;13.90;;;;;;;;;;5029882;28;20907;-34
2022/01/07 01:28:34;;;;;;;17.93;12.40;;;;;;;;;;5030394;28;20428;-34
2022/01/07 01:31:02;;;;;;;15.93;11.00;;;;;;;;;;5040382;28;20425;-34
2022/01/07 01:33:28;;;;;;;17.43;12.43;;;;;;;;;;5031893;28;20469;-34
2022/01/07 01:35:54;;;;;;;20.30;13.57;;;;;;;;;;5031809;28;20852;-34
2022/01/07 01:38:20;;;;;;;20.33;14.57;;;;;;;;;;5048502;28;20446;-35
2022/01/07 01:40:49;;;;;;;21.03;14.07;;;;;;;;;;5050205;28;20457;-34
2022/01/07 01:43:15;;;;;;;21.93;14.40;;;;;;;;;;5047912;28;20766;-34
2022/01/07 01:45:44;;;;;;;24.40;16.73;;;;;;;;;;5047684;28;20441;-34
2022/01/07 01:48:10;;;;;;;19.13;14.13;;;;;;;;;;5038582;28;20939;-34
2022/01/07 01:50:36;;;;;;;17.53;12.33;;;;;;;;;;5036699;28;20820;-34
2022/01/07 01:53:03;;;;;;;24.27;16.27;;;;;;;;;;5049035;28;20437;-34
2022/01/07 01:55:30;;;;;;;21.97;15.30;;;;;;;;;;5032180;28;20430;-34
2022/01/07 01:57:56;;;;;;;21.47;14.17;;;;;;;;;;5037475;28;20425;-34
2022/01/07 02:00:26;;;;;;;20.13;13.73;;;;;;;;;;5038155;28;20464;-34
2022/01/07 02:02:53;;;;;;;19.00;13.87;;;;;;;;;;5053034;28;20476;-34
2022/01/07 02:05:19;;;;;;;26.07;16.33;;;;;;;;;;5033122;28;20509;-34
2022/01/07 02:07:45;;;;;;;24.37;13.77;;;;;;;;;;5033077;28;20429;-34
2022/01/07 02:10:12;;;;;;;18.97;13.40;;;;;;;;;;5037943;28;20481;-34
2022/01/07 02:12:42;;;;;;;27.30;17.37;;;;;;;;;;5052906;28;20827;-34
2022/01/07 02:15:09;;;;;;;23.83;15.40;;;;;;;;;;5038991;28;21232;-34
2022/01/07 02:17:37;;;;;;;21.60;15.93;;;;;;;;;;5034256;28;20429;-34
2022/01/07 02:20:07;;;;;;;33.50;20.17;;;;;;;;;;5033325;28;20514;-34
2022/01/07 02:22:35;;;;;;;23.83;16.90;;;;;;;;;;5051091;28;20978;-34
2022/01/07 02:25:03;;;;;;;20.30;15.00;;;;;;;;;;5051204;28;20428;-34
2022/01/07 02:27:30;;;;;;;32.63;20.70;;;;;;;;;;5038730;28;20425;-36
2022/01/07 02:29:57;;;;;;;31.87;21.27;;;;;;;;;;5052794;28;20451;-34
2022/01/07 02:32:24;;;;;;;22.20;17.10;;;;;;;;;;5060293;28;21119;-34
2022/01/07 02:34:50;;;;;;;26.17;19.60;;;;;;;;;;5064234;28;20437;-34
2022/01/07 02:37:16;;;;;;;26.93;17.77;;;;;;;;;;5046413;28;20429;-34
2022/01/07 02:39:51;;;;;;;28.90;20.87;;;;;;;;;;5049706;28;20453;-33
2022/01/07 02:42:17;;;;;;;25.60;19.23;;;;;;;;;;5045700;28;20428;-34
2022/01/07 02:44:43;;;;;;;27.03;19.00;;;;;;;;;;5048421;28;21161;-34
2022/01/07 02:47:09;;;;;;;26.03;18.07;;;;;;;;;;5051848;28;20805;-34
2022/01/07 02:49:35;;;;;;;31.13;20.27;;;;;;;;;;5032404;28;20765;-34
2022/01/07 02:52:04;;;;;;;31.70;21.33;;;;;;;;;;5036048;28;20437;-34
2022/01/07 02:54:30;;;;;;;30.40;22.43;;;;;;;;;;5039220;28;20797;-34
2022/01/07 02:56:56;;;;;;;40.47;26.27;;;;;;;;;;5036076;28;20433;-34
2022/01/07 02:59:22;;;;;;;39.27;26.83;;;;;;;;;;5050711;28;20460;-33
2022/01/07 03:01:48;;;;;;;38.07;27.00;;;;;;;;;;5036297;28;20443;-34
2022/01/07 03:04:18;;;;;;;38.53;26.20;;;;;;;;;;5034337;28;20428;-34
2022/01/07 03:06:44;;;;;;;30.43;23.73;;;;;;;;;;5052389;28;20409;-35
2022/01/07 03:09:10;;;;;;;27.70;21.57;;;;;;;;;;5053000;28;20497;-34
2022/01/07 03:11:36;;;;;;;40.47;28.27;;;;;;;;;;5038241;28;20494;-35
2022/01/07 03:14:05;;;;;;;36.40;26.63;;;;;;;;;;5039832;28;20664;-34
2022/01/07 03:16:31;;;;;;;39.20;28.37;;;;;;;;;;5050345;28;20513;-34
2022/01/07 03:18:57;;;;;;;39.50;27.80;;;;;;;;;;5033326;28;20548;-34
2022/01/07 03:21:23;;;;;;;39.80;27.77;;;;;;;;;;5041641;28;20541;-34
2022/01/07 03:23:49;;;;;;;40.70;28.27;;;;;;;;;;5035922;28;21047;-33
2022/01/07 03:26:16;;;;;;;43.17;29.87;;;;;;;;;;5034765;28;20425;-34
2022/01/07 03:28:44;;;;;;;41.87;28.33;;;;;;;;;;5033154;28;21043;-33
2022/01/07 03:31:10;;;;;;;41.07;27.93;;;;;;;;;;5037509;28;20528;-34
2022/01/07 03:33:36;;;;;;;44.20;27.73;;;;;;;;;;5033893;28;21797;-33
2022/01/07 03:36:03;;;;;;;29.90;22.53;;;;;;;;;;5036515;28;20430;-34
2022/01/07 03:38:29;;;;;;;46.60;30.93;;;;;;;;;;5054586;28;20456;-34
2022/01/07 03:40:58;;;;;;;37.57;26.23;;;;;;;;;;5040929;28;20826;-33
2022/01/07 03:43:24;;;;;;;42.47;29.33;;;;;;;;;;5051446;28;20773;-34
2022/01/07 03:45:50;;;;;;;39.97;26.07;;;;;;;;;;5049818;28;20477;-34
2022/01/07 03:48:16;;;;;;;40.20;26.80;;;;;;;;;;5035233;28;20459;-34
2022/01/07 03:50:42;;;;;;;29.27;21.37;;;;;;;;;;5039066;28;20417;-33
2022/01/07 03:53:09;;;;;;;42.00;27.33;;;;;;;;;;5036379;28;20428;-34
2022/01/07 03:55:35;;;;;;;37.23;25.83;;;;;;;;;;5034020;28;20425;-33
2022/01/07 03:58:04;;;;;;;38.50;26.17;;;;;;;;;;5041788;28;21027;-33
2022/01/07 04:00:37;;;;;;;39.07;25.67;;;;;;;;;;5056796;28;21111;-33
2022/01/07 04:03:04;;;;;;;38.13;24.97;;;;;;;;;;5038477;28;20428;-33
2022/01/07 04:05:30;;;;;;;33.60;23.57;;;;;;;;;;5053524;28;20437;-33
2022/01/07 04:07:56;;;;;;;29.23;20.40;;;;;;;;;;5055029;28;20552;-34
2022/01/07 04:10:25;;;;;;;38.33;23.97;;;;;;;;;;5038882;28;20432;-33
2022/01/07 04:12:52;;;;;;;34.17;22.93;;;;;;;;;;5037282;28;21017;-34
2022/01/07 04:15:25;;;;;;;26.43;18.93;;;;;;;;;;5053049;28;20468;-33
2022/01/07 04:17:53;;;;;;;29.93;21.67;;;;;;;;;;5033142;28;21342;-34
2022/01/07 04:20:21;;;;;;;29.90;20.93;;;;;;;;;;5054300;28;20511;-33
2022/01/07 04:22:47;;;;;;;24.87;17.63;;;;;;;;;;5033246;28;20421;-33
2022/01/07 04:25:17;;;;;;;23.20;15.77;;;;;;;;;;5036026;28;20424;-34
2022/01/07 04:27:45;;;;;;;24.13;17.13;;;;;;;;;;5052044;28;21260;-34
2022/01/07 04:30:11;;;;;;;34.37;22.13;;;;;;;;;;5038328;28;20460;-33
2022/01/07 04:32:37;;;;;;;22.57;16.40;;;;;;;;;;5033676;28;20428;-33
2022/01/07 04:35:04;;;;;;;28.10;18.97;;;;;;;;;;5037248;28;20443;-33
2022/01/07 04:37:31;;;;;;;29.47;18.40;;;;;;;;;;5052802;28;20507;-33
2022/01/07 04:39:57;;;;;;;27.80;18.67;;;;;;;;;;5031972;28;20887;-33
2022/01/07 04:42:23;;;;;;;24.87;15.57;;;;;;;;;;5032593;28;20550;-34
2022/01/07 04:44:49;;;;;;;29.07;18.97;;;;;;;;;;5051878;28;21114;-33
2022/01/07 04:47:20;;;;;;;21.90;13.43;;;;;;;;;;5036285;28;21220;-33
2022/01/07 04:49:46;;;;;;;27.43;18.37;;;;;;;;;;5033527;28;20502;-33
2022/01/07 04:52:12;;;;;;;25.37;17.23;;;;;;;;;;5054893;28;21092;-33
2022/01/07 04:54:38;;;;;;;24.23;16.23;;;;;;;;;;5035694;28;21256;-33
2022/01/07 04:57:04;;;;;;;23.63;15.50;;;;;;;;;;5032047;28;20536;-33
2022/01/07 04:59:31;;;;;;;26.37;17.10;;;;;;;;;;5052013;28;20764;-33
2022/01/07 05:01:57;;;;;;;17.83;13.20;;;;;;;;;;5039609;28;20429;-33
2022/01/07 05:04:23;;;;;;;22.77;15.70;;;;;;;;;;5051031;28;20855;-33
2022/01/07 05:06:49;;;;;;;21.43;14.37;;;;;;;;;;5033751;28;20483;-33
2022/01/07 05:09:16;;;;;;;29.70;17.80;;;;;;;;;;5035857;28;20967;-33
2022/01/07 05:11:43;;;;;;;21.07;15.20;;;;;;;;;;5038517;28;20813;-33
2022/01/07 05:14:09;;;;;;;26.43;17.77;;;;;;;;;;5040300;28;20844;-33
2022/01/07 05:16:35;;;;;;;20.60;14.67;;;;;;;;;;5037090;28;20928;-33
2022/01/07 05:19:02;;;;;;;21.27;15.40;;;;;;;;;;5039125;28;20544;-33
2022/01/07 05:21:28;;;;;;;32.87;20.07;;;;;;;;;;5042120;28;20425;-33
2022/01/07 05:23:54;;;;;;;27.63;18.43;;;;;;;;;;5054091;28;21041;-33
2022/01/07 05:26:21;;;;;;;23.53;16.70;;;;;;;;;;5034257;28;20772;-33
2022/01/07 05:28:47;;;;;;;27.57;19.07;;;;;;;;;;5048186;28;20854;-33
2022/01/07 05:31:13;;;;;;;25.77;17.67;;;;;;;;;;5040488;28;20924;-32
2022/01/07 05:33:39;;;;;;;31.03;20.53;;;;;;;;;;5036640;28;21649;-33
2022/01/07 05:36:06;;;;;;;25.07;16.87;;;;;;;;;;5037732;28;20455;-33
2022/01/07 05:38:32;;;;;;;26.83;17.47;;;;;;;;;;5035163;28;20435;-33
2022/01/07 05:40:58;;;;;;;37.90;22.50;;;;;;;;;;5034150;28;20455;-33
2022/01/07 05:43:24;;;;;;;29.13;18.77;;;;;;;;;;5040640;28;20421;-32
2022/01/07 05:45:50;;;;;;;30.70;20.73;;;;;;;;;;5034564;28;20903;-33
2022/01/07 05:48:16;;;;;;;28.03;17.70;;;;;;;;;;5033507;28;20436;-33
2022/01/07 05:50:42;;;;;;;31.73;19.83;;;;;;;;;;5030637;28;21184;-33
2022/01/07 05:53:09;;;;;;;32.57;20.67;;;;;;;;;;5039192;28;20421;-33
2022/01/07 05:55:38;;;;;;;26.37;17.27;;;;;;;;;;5034646;28;20563;-33
2022/01/07 05:58:04;;;;;;;29.83;19.10;;;;;;;;;;5050476;28;20433;-33
2022/01/07 06:00:33;;;;;;;25.07;16.23;;;;;;;;;;5032689;28;20886;-33
2022/01/07 06:02:59;;;;;;;26.20;17.10;;;;;;;;;;5040577;28;21254;-32
2022/01/07 06:05:25;;;;;;;36.73;19.20;;;;;;;;;;5033820;28;20413;-33
2022/01/07 06:07:54;;;;;;;22.30;15.00;;;;;;;;;;5049629;28;20457;-33
2022/01/07 06:10:20;;;;;;;31.27;18.70;;;;;;;;;;5049819;28;20429;-32
2022/01/07 06:12:46;;;;;;;31.53;19.40;;;;;;;;;;5036661;28;20428;-32
2022/01/07 06:15:12;;;;;;;29.40;18.70;;;;;;;;;;5031039;28;20850;-33
2022/01/07 06:17:39;;;;;;;29.33;18.30;;;;;;;;;;5031524;28;20830;-33
2022/01/07 06:20:06;;;;;;;24.73;16.87;;;;;;;;;;5035551;28;20456;-32
2022/01/07 06:22:32;;;;;;;32.47;20.17;;;;;;;;;;5036736;28;21043;-33
2022/01/07 06:24:58;;;;;;;22.27;14.90;;;;;;;;;;5032931;28;20417;-33
2022/01/07 06:27:24;;;;;;;31.40;18.00;;;;;;;;;;5033220;28;20417;-33
2022/01/07 06:29:50;;;;;;;36.33;20.67;;;;;;;;;;5050339;28;20828;-33
2022/01/07 06:32:16;;;;;;;33.83;20.27;;;;;;;;;;5053053;28;20426;-32
2022/01/07 06:34:43;;;;;;;32.10;21.37;;;;;;;;;;5033265;28;21043;-33
2022/01/07 06:37:09;;;;;;;33.17;21.43;;;;;;;;;;5049916;28;20428;-33
2022/01/07 06:39:35;;;;;;;33.17;20.57;;;;;;;;;;5039166;28;20706;-33
2022/01/07 06:42:04;;;;;;;27.07;18.73;;;;;;;;;;5053922;28;20725;-33
2022/01/07 06:44:30;;;;;;;30.40;18.70;;;;;;;;;;5035993;28;21011;-33
2022/01/07 06:46:58;;;;;;;29.17;19.47;;;;;;;;;;5036872;28;20456;-33
2022/01/07 06:49:25;;;;;;;34.50;21.37;;;;;;;;;;5037759;28;20460;-32
2022/01/07 06:51:51;;;;;;;31.73;19.50;;;;;;;;;;5036895;28;20426;-33
2022/01/07 06:54:18;;;;;;;26.10;17.57;;;;;;;;;;5034939;28;21033;-32
2022/01/07 06:56:44;;;;;;;26.13;17.60;;;;;;;;;;5036952;28;20799;-41
2022/01/07 06:59:14;;;;;;;27.00;18.07;;;;;;;;;;5033302;28;20424;-42
2022/01/07 07:01:41;;;;;;;27.60;16.93;;;;;;;;;;5040300;28;20424;-42
2022/01/07 07:04:10;;;;;;;24.47;16.23;;;;;;;;;;5040453;28;20995;-41
2022/01/07 07:06:36;;;;;;;28.87;18.33;;;;;;;;;;5036613;28;20732;-41
2022/01/07 07:09:03;;;;;;;26.23;17.53;;;;;;;;;;5051472;28;20420;-38
2022/01/07 07:11:29;;;;;;;24.30;16.40;;;;;;;;;;5036952;28;20417;-39
2022/01/07 07:13:55;;;;;;;29.63;19.43;;;;;;;;;;5044334;28;20452;-39
2022/01/07 07:16:21;;;;;;;32.87;19.30;;;;;;;;;;5040769;28;20421;-37
2022/01/07 07:18:48;;;;;;;24.57;16.27;;;;;;;;;;5055495;28;20584;-39
2022/01/07 07:21:14;;;;;;;23.40;16.73;;;;;;;;;;5037247;28;20462;-41
2022/01/07 07:23:41;;;;;;;35.93;21.47;;;;;;;;;;5055986;28;20461;-39
2022/01/07 07:26:07;;;;;;;24.20;15.57;;;;;;;;;;5056559;28;20865;-37
2022/01/07 07:28:35;;;;;;;32.03;19.40;;;;;;;;;;5044924;28;20416;-36
2022/01/07 07:31:04;;;;;;;30.43;20.03;;;;;;;;;;5036593;28;21350;-40
2022/01/07 07:33:54;;;;;;;29.00;17.83;;;;;;;;;;5053472;28;21008;-39
2022/01/07 07:36:29;;;;;;;30.00;21.43;;;;;;;;;;5055849;28;20908;-40
2022/01/07 07:38:57;;;;;;;39.20;25.00;;;;;;;;;;5057620;28;20448;-41
2022/01/07 07:41:23;;;;;;;33.80;20.73;;;;;;;;;;5039838;28;20447;-38
2022/01/07 07:43:50;;;;;;;31.63;21.07;;;;;;;;;;5031877;28;20750;-38
2022/01/07 07:46:17;;;;;;;37.57;22.83;;;;;;;;;;5034869;28;20468;-39
2022/01/07 07:48:43;;;;;;;32.63;21.90;;;;;;;;;;5040027;28;20767;-41
2022/01/07 07:51:09;;;;;;;41.03;23.47;;;;;;;;;;5044366;28;20478;-39
2022/01/07 07:53:35;;;;;;;35.27;22.43;;;;;;;;;;5039335;28;21273;-40
2022/01/07 07:56:04;;;;;;;28.27;19.90;;;;;;;;;;5030375;28;20417;-38
2022/01/07 07:58:30;;;;;;;32.63;22.43;;;;;;;;;;5044952;28;20982;-41
2022/01/07 08:00:56;;;;;;;34.10;22.57;;;;;;;;;;5050534;28;20990;-41
2022/01/07 08:03:23;;;;;;;33.67;20.97;;;;;;;;;;5053846;28;20435;-42
2022/01/07 08:05:49;;;;;;;31.53;20.33;;;;;;;;;;5051981;28;20517;-37
2022/01/07 08:08:16;;;;;;;27.37;19.37;;;;;;;;;;5055750;28;20428;-41
2022/01/07 08:10:48;;;;;;;30.57;20.47;;;;;;;;;;5055932;28;20429;-42
2022/01/07 08:16:00;;;;;;;25.97;19.03;;;;;;;;;;5062949;28;20432;-40
2022/01/07 08:18:31;;;;;;;30.80;19.77;;;;;;;;;;5046792;28;20750;-41
2022/01/07 08:20:58;;;;;;;31.00;20.23;;;;;;;;;;5049260;28;20464;-42
2022/01/07 08:23:26;;;;;;;26.80;19.03;;;;;;;;;;5039399;28;20607;-40
2022/01/07 08:25:53;;;;;;;29.27;18.80;;;;;;;;;;5057725;28;20475;-42
2022/01/07 08:28:22;;;;;;;28.90;18.47;;;;;;;;;;5038998;28;20421;-44
2022/01/07 08:36:21;;;;;;;25.50;16.47;;;;;;;;;;5054288;28;20435;-45
2022/01/07 08:38:49;;;;;;;28.03;16.03;;;;;;;;;;5034714;28;20506;-45
2022/01/07 08:41:15;;;;;;;25.60;15.07;;;;;;;;;;5050678;28;20529;-45
2022/01/07 08:43:41;;;;;;;25.17;15.70;;;;;;;;;;5035074;28;20914;-44
2022/01/07 08:46:08;;;;;;;23.07;15.33;;;;;;;;;;5039853;28;21146;-45
2022/01/07 08:48:35;;;;;;;21.10;14.07;;;;;;;;;;5040495;28;20437;-45
2022/01/07 08:51:01;;;;;;;22.87;14.03;;;;;;;;;;5034150;28;20429;-44
2022/01/07 08:53:28;;;;;;;20.87;13.67;;;;;;;;;;5032908;28;20421;-44
2022/01/07 08:55:54;;;;;;;24.70;14.70;;;;;;;;;;5035861;28;20428;-45
2022/01/07 08:58:20;;;;;;;18.00;13.53;;;;;;;;;;5036989;28;20467;-44
2022/01/07 09:00:47;;;;;;;18.50;13.07;;;;;;;;;;5040987;28;20465;-44
2022/01/07 09:03:13;;;;;;;19.40;12.23;;;;;;;;;;5016705;28;20457;-44
2022/01/07 09:05:41;;;;;;;18.70;12.40;;;;;;;;;;5020701;28;20781;-44
2022/01/07 09:08:10;;;;;;;20.07;12.67;;;;;;;;;;5037549;28;20895;-45
2022/01/07 09:10:36;;;;;;;19.53;12.97;;;;;;;;;;5016514;28;20455;-45
2022/01/07 09:13:03;;;;;;;19.67;12.53;;;;;;;;;;5021953;28;20567;-44
2022/01/07 09:15:31;;;;;;;16.33;11.60;;;;;;;;;;5039345;28;20440;-44
2022/01/07 09:17:57;;;;;;;19.17;12.60;;;;;;;;;;5023218;28;20430;-44
2022/01/07 09:20:23;;;;;;;17.17;12.07;;;;;;;;;;5015147;28;20446;-44
2022/01/07 09:22:53;;;;;;;17.17;11.43;;;;;;;;;;5035695;28;20417;-44
2022/01/07 09:25:22;;;;;;;16.30;10.60;;;;;;;;;;5018590;28;20420;-45
2022/01/07 09:27:48;;;;;;;13.17;9.97;;;;;;;;;;5033258;28;20896;-44
2022/01/07 09:30:14;;;;;;;17.50;11.30;;;;;;;;;;5023676;28;20436;-44
2022/01/07 09:32:41;;;;;;;19.53;11.80;;;;;;;;;;5023001;28;21004;-44
2022/01/07 09:35:07;;;;;;;16.23;10.50;;;;;;;;;;5021512;28;21213;-45
2022/01/07 09:37:35;;;;;;;16.53;10.03;;;;;;;;;;5036129;28;20444;-45
2022/01/07 09:40:01;;;;;;;14.30;9.73;;;;;;;;;;5023742;28;20471;-44
2022/01/07 09:42:28;;;;;;;15.47;9.47;;;;;;;;;;5020780;28;20836;-44
2022/01/07 09:44:54;;;;;;;17.37;9.83;;;;;;;;;;5020495;28;21038;-44
2022/01/07 09:47:22;;;;;;;12.17;8.63;;;;;;;;;;5018376;28;20936;-44
2022/01/07 09:49:49;;;;;;;13.80;8.43;;;;;;;;;;5038180;28;20983;-44
2022/01/07 09:52:15;;;;;;;10.93;8.67;;;;;;;;;;5021367;28;20425;-44
2022/01/07 09:54:44;;;;;;;14.37;8.57;;;;;;;;;;5034795;28;21230;-43
2022/01/07 09:57:11;;;;;;;13.00;8.40;;;;;;;;;;5020016;28;20428;-44
2022/01/07 09:59:40;;;;;;;14.63;8.27;;;;;;;;;;5025895;28;20454;-43
2022/01/07 10:02:07;;;;;;;14.40;8.57;;;;;;;;;;5021825;28;20869;-43
2022/01/07 10:04:34;;;;;;;12.90;8.60;;;;;;;;;;5036320;28;20430;-43
2022/01/07 10:07:20;;;;;;;12.93;8.33;;;;;;;;;;5036104;28;20426;-42
2022/01/07 10:09:58;;;;;;;12.00;8.30;;;;;;;;;;5022407;28;20455;-44
2022/01/07 10:12:25;;;;;;;11.37;7.13;;;;;;;;;;5033973;28;20923;-43
2022/01/07 10:15:11;;;;;;;9.53;6.63;;;;;;;;;;5027047;28;20436;-42
2022/01/07 10:17:37;;;;;;;10.93;6.63;;;;;;;;;;5042959;28;20490;-41
2022/01/07 10:20:04;;;;;;;9.00;6.10;;;;;;;;;;5020444;28;20996;-42
2022/01/07 10:22:47;;;;;;;10.70;7.10;;;;;;;;;;5034923;28;20450;-43
2022/01/07 10:25:19;;;;;;;9.93;6.30;;;;;;;;;;5035189;28;20472;-42
2022/01/07 10:27:46;;;;;;;14.37;7.53;;;;;;;;;;5021394;28;20428;-43
2022/01/07 10:30:13;;;;;;;9.27;6.40;;;;;;;;;;5022286;28;20455;-42
2022/01/07 10:32:39;;;;;;;12.10;6.60;;;;;;;;;;5033256;28;20886;-43
2022/01/07 10:35:08;;;;;;;8.50;6.30;;;;;;;;;;5019631;28;20421;-42
2022/01/07 10:37:45;;;;;;;11.53;6.20;;;;;;;;;;5027244;28;20437;-43
2022/01/07 10:40:24;;;;;;;10.00;6.67;;;;;;;;;;5019996;28;20491;-43
2022/01/07 10:42:53;;;;;;;9.57;6.33;;;;;;;;;;5016744;28;21238;-44
2022/01/07 10:45:19;;;;;;;9.87;6.40;;;;;;;;;;5025075;28;20444;-44
2022/01/07 10:47:49;;;;;;;12.47;6.40;;;;;;;;;;5025227;28;20773;-42
2022/01/07 10:50:16;;;;;;;8.90;6.23;;;;;;;;;;5037780;28;20505;-44
2022/01/07 10:52:43;;;;;;;10.33;6.33;;;;;;;;;;5022285;28;21682;-44
2022/01/07 10:55:13;;;;;;;7.77;5.37;;;;;;;;;;5023369;28;20744;-43
2022/01/07 10:57:44;;;;;;;9.60;5.67;;;;;;;;;;5039060;28;20429;-43
2022/01/07 11:00:30;;;;;;;8.80;5.57;;;;;;;;;;5021547;28;20448;-44
2022/01/07 11:03:00;;;;;;;8.57;4.77;;;;;;;;;;5043879;28;20424;-42
2022/01/07 11:05:26;;;;;;;6.20;4.70;;;;;;;;;;5054984;28;21147;-44
2022/01/07 11:07:56;;;;;;;6.60;4.60;;;;;;;;;;5041135;28;20833;-44
2022/01/07 11:10:23;;;;;;;7.03;4.60;;;;;;;;;;5041671;28;20421;-45
2022/01/07 11:12:49;;;;;;;10.70;4.77;;;;;;;;;;5039621;28;20458;-44
2022/01/07 11:15:15;;;;;;;7.33;4.30;;;;;;;;;;5038052;28;20409;-44
2022/01/07 11:17:42;;;;;;;8.33;4.57;;;;;;;;;;5037329;28;20455;-45
2022/01/07 11:20:12;;;;;;;10.27;4.30;;;;;;;;;;5039006;28;21107;-44
2022/01/07 11:22:40;;;;;;;9.23;4.73;;;;;;;;;;5035329;28;20462;-43
2022/01/07 11:25:08;;;;;;;10.70;4.77;;;;;;;;;;5039318;28;20503;-44
2022/01/07 11:27:46;;;;;;;7.00;3.83;;;;;;;;;;5040654;28;20412;-45
2022/01/07 11:30:14;;;;;;;9.03;4.97;;;;;;;;;;5037858;28;20535;-42
2022/01/07 11:32:45;;;;;;;7.47;4.40;;;;;;;;;;5043092;28;20441;-43
2022/01/07 11:35:21;;;;;;;9.43;4.70;;;;;;;;;;5040894;28;20509;-43
2022/01/07 11:38:07;;;;;;;7.77;4.50;;;;;;;;;;5045423;28;20421;-44
2022/01/07 11:40:39;;;;;;;7.73;4.63;;;;;;;;;;5055575;28;20945;-44
2022/01/07 11:43:21;;;;;;;9.00;4.57;;;;;;;;;;5037262;28;20534;-44
2022/01/07 11:45:47;;;;;;;9.40;4.27;;;;;;;;;;5031255;28;20441;-44
2022/01/07 11:48:17;;;;;;;5.77;4.40;;;;;;;;;;5035507;28;20421;-45
2022/01/07 11:50:46;;;;;;;10.70;4.97;;;;;;;;;;5039654;28;20871;-43
2022/01/07 11:53:13;;;;;;;9.50;5.00;;;;;;;;;;5036524;28;20448;-45
2022/01/07 11:55:42;;;;;;;7.27;4.70;;;;;;;;;;5052898;28;20417;-45
2022/01/07 11:58:09;;;;;;;8.17;5.17;;;;;;;;;;5056596;28;20415;-45
2022/01/07 12:00:54;;;;;;;10.40;4.90;;;;;;;;;;5036291;28;20456;-45
2022/01/07 12:03:33;;;;;;;7.07;4.90;;;;;;;;;;5033071;28;20768;-45
2022/01/07 12:06:19;;;;;;;9.20;4.97;;;;;;;;;;5033993;28;20437;-44
2022/01/07 12:08:57;;;;;;;7.17;5.00;;;;;;;;;;5022660;28;20874;-45
2022/01/07 12:11:27;;;;;;;6.97;4.37;;;;;;;;;;5035259;28;20432;-44
2022/01/07 12:13:54;;;;;;;9.87;5.20;;;;;;;;;;5018420;28;21028;-44
2022/01/07 12:16:24;;;;;;;6.37;4.43;;;;;;;;;;5036349;28;20440;-44
2022/01/07 12:18:50;;;;;;;8.17;4.63;;;;;;;;;;5022008;28;20814;-45
2022/01/07 12:21:17;;;;;;;7.70;5.00;;;;;;;;;;5023960;28;20456;-44
2022/01/07 12:23:44;;;;;;;9.20;4.47;;;;;;;;;;5035458;28;20757;-44
2022/01/07 12:26:10;;;;;;;7.50;4.20;;;;;;;;;;5020346;28;20507;-44
2022/01/07 12:28:38;;;;;;;10.10;5.00;;;;;;;;;;5018499;28;20417;-44
2022/01/07 12:31:08;;;;;;;9.63;5.00;;;;;;;;;;5033608;28;20501;-44
2022/01/07 12:33:35;;;;;;;6.27;4.33;;;;;;;;;;5015039;28;20430;-44
2022/01/07 12:36:01;;;;;;;8.17;4.67;;;;;;;;;;5019983;28;21709;-44
2022/01/07 12:38:27;;;;;;;6.83;4.63;;;;;;;;;;5024320;28;21353;-43
2022/01/07 12:40:54;;;;;;;7.17;4.43;;;;;;;;;;5018949;28;20654;-43
2022/01/07 12:43:22;;;;;;;10.83;4.63;;;;;;;;;;5033178;28;21186;-44
2022/01/07 12:46:17;;;;;;;7.57;4.40;;;;;;;;;;5032843;28;20449;-43
2022/01/07 12:48:44;;;;;;;8.00;4.80;;;;;;;;;;5022225;28;20512;-45
2022/01/07 12:51:10;;;;;;;9.53;4.90;;;;;;;;;;5019084;28;20557;-45
2022/01/07 12:53:36;;;;;;;8.60;4.87;;;;;;;;;;5035307;28;20864;-45
2022/01/07 12:56:22;;;;;;;8.57;4.30;;;;;;;;;;5018863;28;20421;-45
2022/01/07 12:58:48;;;;;;;7.60;4.77;;;;;;;;;;5016296;28;21108;-45
2022/01/07 13:01:31;;;;;;;7.93;4.40;;;;;;;;;;5016303;28;20457;-45
2022/01/07 13:04:04;;;;;;;7.80;4.53;;;;;;;;;;5029281;28;21295;-46
2022/01/07 13:06:37;;;;;;;8.43;4.77;;;;;;;;;;5041035;28;20430;-46
2022/01/07 13:09:04;;;;;;;11.80;4.77;;;;;;;;;;5038177;28;20436;-45
2022/01/07 13:11:32;;;;;;;7.23;4.23;;;;;;;;;;5032917;28;20471;-46
2022/01/07 13:14:18;;;;;;;10.50;4.90;;;;;;;;;;5031846;28;20405;-46
2022/01/07 13:16:44;;;;;;;6.63;4.40;;;;;;;;;;5034531;28;20432;-46
2022/01/07 13:19:11;;;;;;;10.37;4.80;;;;;;;;;;5037498;28;20723;-46
2022/01/07 13:21:41;;;;;;;8.03;4.73;;;;;;;;;;5034486;28;21262;-46
2022/01/07 13:24:07;;;;;;;7.50;4.70;;;;;;;;;;5029854;28;20782;-45
2022/01/07 13:26:38;;;;;;;10.93;4.93;;;;;;;;;;5029257;28;20441;-46
2022/01/07 13:29:21;;;;;;;8.37;4.70;;;;;;;;;;5036480;28;20925;-46
2022/01/07 13:31:49;;;;;;;7.10;4.20;;;;;;;;;;5031297;28;20754;-46
2022/01/07 13:34:22;;;;;;;7.23;4.30;;;;;;;;;;5049630;28;20845;-46
2022/01/07 13:36:49;;;;;;;7.30;4.77;;;;;;;;;;5035705;28;20420;-46
2022/01/07 13:39:17;;;;;;;6.80;4.63;;;;;;;;;;5041790;28;20426;-46
2022/01/07 13:41:55;;;;;;;9.03;4.40;;;;;;;;;;5051911;28;20653;-46
2022/01/07 13:44:22;;;;;;;8.17;4.77;;;;;;;;;;5038437;28;20532;-44
2022/01/07 13:46:52;;;;;;;8.47;4.47;;;;;;;;;;5050507;28;20445;-45
2022/01/07 13:49:19;;;;;;;8.03;4.80;;;;;;;;;;5028007;28;20422;-44
2022/01/07 13:51:57;;;;;;;9.23;4.73;;;;;;;;;;5033350;28;20499;-45
2022/01/07 13:54:32;;;;;;;9.13;4.83;;;;;;;;;;5015907;28;20428;-45
2022/01/07 13:57:11;;;;;;;9.30;4.70;;;;;;;;;;5014921;28;21325;-45
2022/01/07 13:59:53;;;;;;;7.97;4.23;;;;;;;;;;5035568;28;20425;-47
2022/01/07 14:02:21;;;;;;;8.17;5.10;;;;;;;;;;5021780;28;20459;-46
2022/01/07 14:04:47;;;;;;;10.93;4.67;;;;;;;;;;5027210;28;21270;-46
2022/01/07 14:07:20;;;;;;;7.03;4.93;;;;;;;;;;5042684;28;20496;-46
2022/01/07 14:10:03;;;;;;;7.10;4.27;;;;;;;;;;5056013;28;21224;-46
2022/01/07 14:12:29;;;;;;;9.87;4.97;;;;;;;;;;5033881;28;20428;-45
2022/01/07 14:15:05;;;;;;;7.93;4.53;;;;;;;;;;5034315;28;20431;-46
2022/01/07 14:17:31;;;;;;;8.10;4.70;;;;;;;;;;5047240;28;20519;-45
2022/01/07 14:19:58;;;;;;;8.70;4.60;;;;;;;;;;5052175;28;20619;-45
2022/01/07 14:22:25;;;;;;;7.10;4.83;;;;;;;;;;5038568;28;20627;-45
2022/01/07 14:24:51;;;;;;;8.73;4.80;;;;;;;;;;5034792;28;20845;-46
2022/01/07 14:27:31;;;;;;;9.63;4.90;;;;;;;;;;5030652;28;20420;-48
2022/01/07 14:29:58;;;;;;;11.03;5.03;;;;;;;;;;5039802;28;20454;-45
2022/01/07 14:32:25;;;;;;;7.33;4.40;;;;;;;;;;5050042;28;20433;-45
2022/01/07 14:34:55;;;;;;;9.30;4.83;;;;;;;;;;5035745;28;21002;-44
2022/01/07 14:37:23;;;;;;;10.33;4.60;;;;;;;;;;5034438;28;20548;-45